地図

経路データ

SID SEASON NUMBER BASIN SUBBASIN NAME ISO_TIME NATURE LAT LON WMO_WIND WMO_PRES WMO_AGENCY TRACK_TYPE DIST2LAND LANDFALL IFLAG USA_AGENCY USA_ATCF_ID USA_LAT USA_LON USA_RECORD USA_STATUS USA_WIND USA_PRES USA_SSHS USA_R34_NE USA_R34_SE USA_R34_SW USA_R34_NW USA_R50_NE USA_R50_SE USA_R50_SW USA_R50_NW USA_R64_NE USA_R64_SE USA_R64_SW USA_R64_NW USA_POCI USA_ROCI USA_RMW USA_EYE TOKYO_LAT TOKYO_LON TOKYO_GRADE TOKYO_WIND TOKYO_PRES TOKYO_R50_DIR TOKYO_R50_LONG TOKYO_R50_SHORT TOKYO_R30_DIR TOKYO_R30_LONG TOKYO_R30_SHORT TOKYO_LAND CMA_LAT CMA_LON CMA_CAT CMA_WIND CMA_PRES HKO_LAT HKO_LON HKO_CAT HKO_WIND HKO_PRES NEWDELHI_LAT NEWDELHI_LON NEWDELHI_GRADE NEWDELHI_WIND NEWDELHI_PRES NEWDELHI_CI NEWDELHI_DP NEWDELHI_POCI REUNION_LAT REUNION_LON REUNION_TYPE REUNION_WIND REUNION_PRES REUNION_TNUM REUNION_CI REUNION_RMW REUNION_R34_NE REUNION_R34_SE REUNION_R34_SW REUNION_R34_NW REUNION_R50_NE REUNION_R50_SE REUNION_R50_SW REUNION_R50_NW REUNION_R64_NE REUNION_R64_SE REUNION_R64_SW REUNION_R64_NW BOM_LAT BOM_LON BOM_TYPE BOM_WIND BOM_PRES BOM_TNUM BOM_CI BOM_RMW BOM_R34_NE BOM_R34_SE BOM_R34_SW BOM_R34_NW BOM_R50_NE BOM_R50_SE BOM_R50_SW BOM_R50_NW BOM_R64_NE BOM_R64_SE BOM_R64_SW BOM_R64_NW BOM_ROCI BOM_POCI BOM_EYE BOM_POS_METHOD BOM_PRES_METHOD NADI_LAT NADI_LON NADI_CAT NADI_WIND NADI_PRES WELLINGTON_LAT WELLINGTON_LON WELLINGTON_WIND WELLINGTON_PRES DS824_LAT DS824_LON DS824_STAGE DS824_WIND DS824_PRES TD9636_LAT TD9636_LON TD9636_STAGE TD9636_WIND TD9636_PRES TD9635_LAT TD9635_LON TD9635_WIND TD9635_PRES TD9635_ROCI NEUMANN_LAT NEUMANN_LON NEUMANN_CLASS NEUMANN_WIND NEUMANN_PRES MLC_LAT MLC_LON MLC_CLASS MLC_WIND MLC_PRES USA_GUST BOM_GUST BOM_GUST_PER REUNION_GUST REUNION_GUST_PER USA_SEAHGT USA_SEARAD_NE USA_SEARAD_SE USA_SEARAD_SW USA_SEARAD_NW STORM_SPEED STORM_DIR
1993236N14329 1993 60 NA NA DENNIS 1993-08-23 12:00:00 TS 13.6000 -30.8000 25 1010 hurdat_atl main 1439 1439 O_____________ hurdat_atl AL061993 13.6000 -30.8000 TD 25 1010 -1 5 301
1993236N14329 1993 60 NA NA DENNIS 1993-08-23 15:00:00 TS 13.7174 -30.9976 main 1460 1460 P_____________ AL061993 13.7174 -30.9976 TD 27 1009 -1 6 302
1993236N14329 1993 60 NA NA DENNIS 1993-08-23 18:00:00 TS 13.9000 -31.3000 30 1009 hurdat_atl main 1490 1490 O_____________ hurdat_atl AL061993 13.9000 -31.3000 TD 30 1009 -1 9 302
1993236N14329 1993 60 NA NA DENNIS 1993-08-23 21:00:00 TS 14.1851 -31.7698 main 1541 1541 P_____________ AL061993 14.1851 -31.7698 TD 30 1008 -1 11 302
1993236N14329 1993 60 NA NA DENNIS 1993-08-24 00:00:00 TS 14.5000 -32.3000 30 1007 hurdat_atl main 1593 1593 O_____________ hurdat_atl AL061993 14.5000 -32.3000 TD 30 1007 -1 11 301
1993236N14329 1993 60 NA NA DENNIS 1993-08-24 03:00:00 TS 14.7649 -32.7651 main 1645 1645 P_____________ AL061993 14.7649 -32.7651 TD 30 1006 -1 10 300
1993236N14329 1993 60 NA NA DENNIS 1993-08-24 06:00:00 TS 15.0000 -33.2000 30 1005 hurdat_atl main 1688 1688 O_____________ hurdat_atl AL061993 15.0000 -33.2000 TD 30 1005 -1 9 299
1993236N14329 1993 60 NA NA DENNIS 1993-08-24 09:00:00 TS 15.2073 -33.6002 main 1730 1730 P_____________ AL061993 15.2073 -33.6002 TD 32 1004 -1 9 297
1993236N14329 1993 60 NA NA DENNIS 1993-08-24 12:00:00 TS 15.4000 -34.0000 35 1003 hurdat_atl main 1773 1773 O_____________ hurdat_atl AL061993 15.4000 -34.0000 TS 35 1003 0 9 295
1993236N14329 1993 60 NA NA DENNIS 1993-08-24 15:00:00 TS 15.5850 -34.4427 main 1816 1816 P_____________ AL061993 15.5850 -34.4427 TS 37 1002 0 10 295
1993236N14329 1993 60 NA NA DENNIS 1993-08-24 18:00:00 TS 15.8000 -34.9000 40 1002 hurdat_atl main 1870 1870 O_____________ hurdat_atl AL061993 15.8000 -34.9000 TS 40 1002 0 10 300
1993236N14329 1993 60 NA NA DENNIS 1993-08-24 21:00:00 TS 16.0925 -35.3575 main 1925 1925 P_____________ AL061993 16.0925 -35.3575 TS 42 1001 0 11 305
1993236N14329 1993 60 NA NA DENNIS 1993-08-25 00:00:00 TS 16.4000 -35.8000 45 1000 hurdat_atl main 1969 1969 O_____________ hurdat_atl AL061993 16.4000 -35.8000 TS 45 1000 0 10 305
1993236N14329 1993 60 NA NA DENNIS 1993-08-25 03:00:00 TS 16.6573 -36.1927 main 2014 2014 P_____________ AL061993 16.6573 -36.1927 TS 45 1000 0 9 303
1993236N14329 1993 60 NA NA DENNIS 1993-08-25 06:00:00 TS 16.9000 -36.6000 45 1000 hurdat_atl main 2058 2058 O_____________ hurdat_atl AL061993 16.9000 -36.6000 TS 45 1000 0 10 300
1993236N14329 1993 60 NA NA DENNIS 1993-08-25 09:00:00 TS 17.1424 -37.0777 main 2110 2093 P_____________ AL061993 17.1424 -37.0777 TS 45 1000 0 11 298
1993236N14329 1993 60 NA NA DENNIS 1993-08-25 12:00:00 TS 17.4000 -37.6000 45 1000 hurdat_atl main 2093 2070 O_____________ hurdat_atl AL061993 17.4000 -37.6000 TS 45 1000 0 12 298
1993236N14329 1993 60 NA NA DENNIS 1993-08-25 15:00:00 TS 17.6850 -38.1501 main 2070 2057 P_____________ AL061993 17.6850 -38.1501 TS 45 1000 0 12 300
1993236N14329 1993 60 NA NA DENNIS 1993-08-25 18:00:00 TS 18.0000 -38.7000 45 1000 hurdat_atl main 2058 2045 O_____________ hurdat_atl AL061993 18.0000 -38.7000 TS 45 1000 0 12 303
1993236N14329 1993 60 NA NA DENNIS 1993-08-25 21:00:00 TS 18.3423 -39.2077 main 2047 2043 P_____________ AL061993 18.3423 -39.2077 TS 45 1000 0 12 306
1993236N14329 1993 60 NA NA DENNIS 1993-08-26 00:00:00 TS 18.7000 -39.7000 45 1000 hurdat_atl main 2047 2038 O_____________ hurdat_atl AL061993 18.7000 -39.7000 TS 45 1000 0 12 307
1993236N14329 1993 60 NA NA DENNIS 1993-08-26 03:00:00 TS 19.0575 -40.2225 main 2049 2039 P_____________ AL061993 19.0575 -40.2225 TS 45 1000 0 12 307
1993236N14329 1993 60 NA NA DENNIS 1993-08-26 06:00:00 TS 19.4000 -40.7000 45 1000 hurdat_atl main 2045 2042 O_____________ hurdat_atl AL061993 19.4000 -40.7000 TS 45 1000 0 10 309
1993236N14329 1993 60 NA NA DENNIS 1993-08-26 09:00:00 TS 19.7073 -41.0728 main 2046 2046 P_____________ AL061993 19.7073 -41.0728 TS 45 1000 0 9 312
1993236N14329 1993 60 NA NA DENNIS 1993-08-26 12:00:00 TS 20.0000 -41.4000 45 1000 hurdat_atl main 2053 2046 O_____________ hurdat_atl AL061993 20.0000 -41.4000 TS 45 1000 0 9 312
1993236N14329 1993 60 NA NA DENNIS 1993-08-26 15:00:00 TS 20.2925 -41.7725 main 2054 2054 P_____________ AL061993 20.2925 -41.7725 TS 42 1000 0 9 312
1993236N14329 1993 60 NA NA DENNIS 1993-08-26 18:00:00 TS 20.6000 -42.1000 40 1001 hurdat_atl main 2064 2064 O_____________ hurdat_atl AL061993 20.6000 -42.1000 TS 40 1001 0 8 320
1993236N14329 1993 60 NA NA DENNIS 1993-08-26 21:00:00 TS 20.9349 -42.3376 main 2080 2080 P_____________ AL061993 20.9349 -42.3376 TS 40 1001 0 8 332
1993236N14329 1993 60 NA NA DENNIS 1993-08-27 00:00:00 TS 21.3000 -42.5000 40 1002 hurdat_atl main 2106 2106 O_____________ hurdat_atl AL061993 21.3000 -42.5000 TS 40 1002 0 8 342
1993236N14329 1993 60 NA NA DENNIS 1993-08-27 03:00:00 TS 21.7224 -42.6076 main 2138 2138 P_____________ AL061993 21.7224 -42.6076 TS 37 1003 0 8 347
1993236N14329 1993 60 NA NA DENNIS 1993-08-27 06:00:00 TS 22.1000 -42.7000 35 1005 hurdat_atl main 2171 2171 O_____________ hurdat_atl AL061993 22.1000 -42.7000 TS 35 1005 0 7 340
1993236N14329 1993 60 NA NA DENNIS 1993-08-27 09:00:00 TS 22.3375 -42.8500 main 2180 2180 P_____________ AL061993 22.3375 -42.8500 TS 32 1005 -1 5 325
1993236N14329 1993 60 NA NA DENNIS 1993-08-27 12:00:00 TS 22.5000 -43.0000 30 1006 hurdat_atl main 2194 2194 O_____________ hurdat_atl AL061993 22.5000 -43.0000 TD 30 1006 -1 4 326
1993236N14329 1993 60 NA NA DENNIS 1993-08-27 15:00:00 TS 22.6724 -43.0926 main 2208 2208 P_____________ AL061993 22.6724 -43.0926 TD 27 1007 -1 4 329
1993236N14329 1993 60 NA NA DENNIS 1993-08-27 18:00:00 TS 22.8000 -43.2000 25 1009 hurdat_atl main 2213 2208 O_____________ hurdat_atl AL061993 22.8000 -43.2000 TD 25 1009 -1 4 310
1993236N14329 1993 60 NA NA DENNIS 1993-08-27 21:00:00 TS 22.8950 -43.3849 main 2213 2203 P_____________ AL061993 22.8950 -43.3849 TD 25 1009 -1 4 285
1993236N14329 1993 60 NA NA DENNIS 1993-08-28 00:00:00 TS 22.9000 -43.6000 25 1009 hurdat_atl main 2203 2184 O_____________ hurdat_atl AL061993 22.9000 -43.6000 TD 25 1009 -1 4 254
1993236N14329 1993 60 NA NA DENNIS 1993-08-28 03:00:00 TS 22.7874 -43.7925 main 2184 2155 P_____________ AL061993 22.7874 -43.7925 TD 25 1009 -1 5 231
1993236N14329 1993 60 NA NA DENNIS 1993-08-28 06:00:00 TS 22.6000 -44.0000 25 1009 hurdat_atl main 2155 2125 O_____________ hurdat_atl AL061993 22.6000 -44.0000 TD 25 1009 -1 6 227
1993236N14329 1993 60 NA NA DENNIS 1993-08-28 09:00:00 TS 22.4001 -44.2401 main 2125 2092 P_____________ AL061993 22.4001 -44.2401 TD 25 1009 -1 6 229
1993236N14329 1993 60 NA NA DENNIS 1993-08-28 12:00:00 TS 22.2000 -44.5000 25 1010 hurdat_atl main 2092 O_____________ hurdat_atl AL061993 22.2000 -44.5000 TD 25 1010 -1 6 230

IBTrACS Databaseについて

本データベースは、米国NOAAが公開する1842年以降の世界の熱帯低気圧のベストトラックデータアーカイブInternational Best Track Archive for Climate Stewardship (IBTrACS)を、ウェブで閲覧しやすい形式に変換したものです。

最終更新日:2021-12-03